sensor_id;sensor_type;location;lat;lon;timestamp;P1;durP1;ratioP1;P2;durP2;ratioP2
14992;SDS011;7592;51.088;13.732;2022-07-22T00:05:09;12.13;;;11.23;;
14992;SDS011;7592;51.088;13.732;2022-07-22T00:10:07;11.87;;;10.77;;
14992;SDS011;7592;51.088;13.732;2022-07-22T00:15:11;11.77;;;10.87;;
14992;SDS011;7592;51.088;13.732;2022-07-22T00:20:09;12.87;;;11.73;;
14992;SDS011;7592;51.088;13.732;2022-07-22T00:25:06;13.07;;;12.03;;
14992;SDS011;7592;51.088;13.732;2022-07-22T00:30:01;12.53;;;11.17;;
14992;SDS011;7592;51.088;13.732;2022-07-22T00:35:02;11.90;;;11.00;;
14992;SDS011;7592;51.088;13.732;2022-07-22T00:40:00;10.93;;;10.03;;
14992;SDS011;7592;51.088;13.732;2022-07-22T00:44:57;11.43;;;10.60;;
14992;SDS011;7592;51.088;13.732;2022-07-22T00:49:56;11.57;;;10.53;;
14992;SDS011;7592;51.088;13.732;2022-07-22T00:54:49;10.37;;;9.50;;
14992;SDS011;7592;51.088;13.732;2022-07-22T00:59:46;11.63;;;10.70;;
14992;SDS011;7592;51.088;13.732;2022-07-22T01:04:45;12.60;;;11.43;;
14992;SDS011;7592;51.088;13.732;2022-07-22T01:09:43;11.30;;;10.50;;
14992;SDS011;7592;51.088;13.732;2022-07-22T01:14:38;10.27;;;9.57;;
14992;SDS011;7592;51.088;13.732;2022-07-22T01:19:35;11.50;;;10.60;;
14992;SDS011;7592;51.088;13.732;2022-07-22T01:24:35;10.67;;;9.93;;
14992;SDS011;7592;51.088;13.732;2022-07-22T01:29:30;12.67;;;11.60;;
14992;SDS011;7592;51.088;13.732;2022-07-22T01:34:22;13.23;;;12.03;;
14992;SDS011;7592;51.088;13.732;2022-07-22T01:39:16;13.70;;;12.60;;
14992;SDS011;7592;51.088;13.732;2022-07-22T01:44:09;12.83;;;11.63;;
14992;SDS011;7592;51.088;13.732;2022-07-22T01:49:02;13.50;;;12.30;;
14992;SDS011;7592;51.088;13.732;2022-07-22T01:54:00;12.73;;;11.73;;
14992;SDS011;7592;51.088;13.732;2022-07-22T01:58:52;11.63;;;10.83;;
14992;SDS011;7592;51.088;13.732;2022-07-22T02:03:49;12.27;;;11.17;;
14992;SDS011;7592;51.088;13.732;2022-07-22T02:08:42;12.03;;;11.03;;
14992;SDS011;7592;51.088;13.732;2022-07-22T02:13:38;11.60;;;10.70;;
14992;SDS011;7592;51.088;13.732;2022-07-22T02:18:31;11.33;;;10.40;;
14992;SDS011;7592;51.088;13.732;2022-07-22T02:23:23;10.60;;;9.90;;
14992;SDS011;7592;51.088;13.732;2022-07-22T02:28:15;12.63;;;11.73;;
14992;SDS011;7592;51.088;13.732;2022-07-22T02:33:08;11.43;;;10.63;;
14992;SDS011;7592;51.088;13.732;2022-07-22T02:38:00;12.53;;;11.33;;
14992;SDS011;7592;51.088;13.732;2022-07-22T02:42:56;13.73;;;12.47;;
14992;SDS011;7592;51.088;13.732;2022-07-22T02:47:50;12.13;;;11.13;;
14992;SDS011;7592;51.088;13.732;2022-07-22T02:52:44;11.93;;;11.03;;
14992;SDS011;7592;51.088;13.732;2022-07-22T02:57:38;11.77;;;10.77;;
14992;SDS011;7592;51.088;13.732;2022-07-22T03:02:31;11.97;;;11.07;;
14992;SDS011;7592;51.088;13.732;2022-07-22T03:07:23;12.67;;;11.47;;
14992;SDS011;7592;51.088;13.732;2022-07-22T03:12:16;11.93;;;11.03;;
14992;SDS011;7592;51.088;13.732;2022-07-22T03:17:08;11.53;;;10.73;;
14992;SDS011;7592;51.088;13.732;2022-07-22T03:22:01;11.23;;;10.33;;
14992;SDS011;7592;51.088;13.732;2022-07-22T03:26:53;11.07;;;10.23;;
14992;SDS011;7592;51.088;13.732;2022-07-22T03:31:46;11.40;;;10.60;;
14992;SDS011;7592;51.088;13.732;2022-07-22T03:36:39;11.87;;;10.87;;
14992;SDS011;7592;51.088;13.732;2022-07-22T03:41:33;10.93;;;9.97;;
14992;SDS011;7592;51.088;13.732;2022-07-22T03:46:25;10.60;;;9.80;;
14992;SDS011;7592;51.088;13.732;2022-07-22T03:51:18;10.80;;;9.90;;
14992;SDS011;7592;51.088;13.732;2022-07-22T03:56:10;11.67;;;10.40;;
14992;SDS011;7592;51.088;13.732;2022-07-22T04:01:03;10.50;;;9.63;;
14992;SDS011;7592;51.088;13.732;2022-07-22T04:05:55;10.97;;;10.17;;
14992;SDS011;7592;51.088;13.732;2022-07-22T04:11:11;10.90;;;9.80;;
14992;SDS011;7592;51.088;13.732;2022-07-22T04:16:05;10.20;;;9.40;;
14992;SDS011;7592;51.088;13.732;2022-07-22T04:20:58;10.67;;;9.90;;
14992;SDS011;7592;51.088;13.732;2022-07-22T04:26:09;10.20;;;9.40;;
14992;SDS011;7592;51.088;13.732;2022-07-22T04:31:01;9.67;;;8.77;;
14992;SDS011;7592;51.088;13.732;2022-07-22T04:35:56;10.60;;;9.47;;
14992;SDS011;7592;51.088;13.732;2022-07-22T04:40:48;8.73;;;8.00;;
14992;SDS011;7592;51.088;13.732;2022-07-22T04:45:46;9.83;;;9.13;;
14992;SDS011;7592;51.088;13.732;2022-07-22T04:50:38;9.63;;;8.90;;
14992;SDS011;7592;51.088;13.732;2022-07-22T04:55:30;9.87;;;8.97;;
14992;SDS011;7592;51.088;13.732;2022-07-22T05:00:23;9.60;;;8.90;;
14992;SDS011;7592;51.088;13.732;2022-07-22T05:05:18;10.30;;;9.33;;
14992;SDS011;7592;51.088;13.732;2022-07-22T05:10:10;9.60;;;8.80;;
14992;SDS011;7592;51.088;13.732;2022-07-22T05:15:09;10.10;;;9.13;;
14992;SDS011;7592;51.088;13.732;2022-07-22T05:20:03;9.27;;;8.20;;
14992;SDS011;7592;51.088;13.732;2022-07-22T05:24:57;8.02;;;7.43;;
14992;SDS011;7592;51.088;13.732;2022-07-22T05:29:49;7.88;;;7.10;;
14992;SDS011;7592;51.088;13.732;2022-07-22T05:34:41;8.13;;;7.35;;
14992;SDS011;7592;51.088;13.732;2022-07-22T05:39:35;6.28;;;5.68;;
14992;SDS011;7592;51.088;13.732;2022-07-22T05:44:27;5.13;;;4.63;;
14992;SDS011;7592;51.088;13.732;2022-07-22T05:49:19;4.70;;;4.30;;
14992;SDS011;7592;51.088;13.732;2022-07-22T05:54:21;7.22;;;4.53;;
14992;SDS011;7592;51.088;13.732;2022-07-22T05:59:14;4.32;;;4.03;;
14992;SDS011;7592;51.088;13.732;2022-07-22T06:04:08;4.03;;;3.72;;
14992;SDS011;7592;51.088;13.732;2022-07-22T06:09:00;4.40;;;4.00;;
14992;SDS011;7592;51.088;13.732;2022-07-22T06:13:53;3.95;;;3.65;;
14992;SDS011;7592;51.088;13.732;2022-07-22T06:18:45;4.72;;;3.90;;
14992;SDS011;7592;51.088;13.732;2022-07-22T06:23:38;3.60;;;3.40;;
14992;SDS011;7592;51.088;13.732;2022-07-22T06:28:30;3.88;;;3.40;;
14992;SDS011;7592;51.088;13.732;2022-07-22T06:33:22;5.10;;;3.95;;
14992;SDS011;7592;51.088;13.732;2022-07-22T06:38:14;3.83;;;3.53;;
14992;SDS011;7592;51.088;13.732;2022-07-22T06:43:41;3.33;;;3.13;;
14992;SDS011;7592;51.088;13.732;2022-07-22T06:49:05;3.63;;;3.42;;
14992;SDS011;7592;51.088;13.732;2022-07-22T06:54:04;3.47;;;3.17;;
14992;SDS011;7592;51.088;13.732;2022-07-22T06:58:57;3.90;;;3.60;;
14992;SDS011;7592;51.088;13.732;2022-07-22T07:03:49;2.90;;;2.75;;
14992;SDS011;7592;51.088;13.732;2022-07-22T07:08:42;2.72;;;2.63;;
14992;SDS011;7592;51.088;13.732;2022-07-22T07:13:34;3.33;;;3.13;;
14992;SDS011;7592;51.088;13.732;2022-07-22T07:18:27;3.35;;;3.15;;
14992;SDS011;7592;51.088;13.732;2022-07-22T07:23:21;3.35;;;3.05;;
14992;SDS011;7592;51.088;13.732;2022-07-22T07:28:14;3.83;;;3.50;;
14992;SDS011;7592;51.088;13.732;2022-07-22T07:33:22;2.88;;;2.78;;
14992;SDS011;7592;51.088;13.732;2022-07-22T07:38:16;3.08;;;2.88;;
14992;SDS011;7592;51.088;13.732;2022-07-22T07:43:09;3.83;;;3.53;;
14992;SDS011;7592;51.088;13.732;2022-07-22T07:48:02;7.05;;;5.25;;
14992;SDS011;7592;51.088;13.732;2022-07-22T07:52:56;4.13;;;3.83;;
14992;SDS011;7592;51.088;13.732;2022-07-22T07:57:50;3.50;;;3.28;;
14992;SDS011;7592;51.088;13.732;2022-07-22T08:02:44;3.75;;;3.53;;
14992;SDS011;7592;51.088;13.732;2022-07-22T08:07:37;4.55;;;3.55;;
14992;SDS011;7592;51.088;13.732;2022-07-22T08:12:29;4.45;;;4.15;;
14992;SDS011;7592;51.088;13.732;2022-07-22T08:17:43;4.22;;;4.03;;
14992;SDS011;7592;51.088;13.732;2022-07-22T08:22:38;4.82;;;4.53;;
14992;SDS011;7592;51.088;13.732;2022-07-22T08:27:35;7.50;;;3.85;;
14992;SDS011;7592;51.088;13.732;2022-07-22T08:32:29;4.38;;;4.03;;
14992;SDS011;7592;51.088;13.732;2022-07-22T08:37:23;4.80;;;4.50;;
14992;SDS011;7592;51.088;13.732;2022-07-22T08:42:20;3.88;;;3.58;;
14992;SDS011;7592;51.088;13.732;2022-07-22T08:47:14;5.20;;;4.80;;
14992;SDS011;7592;51.088;13.732;2022-07-22T08:53:02;4.70;;;4.40;;
14992;SDS011;7592;51.088;13.732;2022-07-22T08:57:58;4.30;;;4.00;;
14992;SDS011;7592;51.088;13.732;2022-07-22T09:02:52;4.40;;;3.95;;
14992;SDS011;7592;51.088;13.732;2022-07-22T09:07:45;6.55;;;4.53;;
14992;SDS011;7592;51.088;13.732;2022-07-22T09:18:08;4.40;;;4.10;;
14992;SDS011;7592;51.088;13.732;2022-07-22T09:23:23;4.38;;;4.00;;
14992;SDS011;7592;51.088;13.732;2022-07-22T09:28:23;4.55;;;4.15;;
14992;SDS011;7592;51.088;13.732;2022-07-22T09:33:45;6.03;;;4.60;;
14992;SDS011;7592;51.088;13.732;2022-07-22T09:38:52;4.05;;;3.75;;
14992;SDS011;7592;51.088;13.732;2022-07-22T09:43:46;4.30;;;4.10;;
14992;SDS011;7592;51.088;13.732;2022-07-22T09:48:40;4.63;;;4.22;;
14992;SDS011;7592;51.088;13.732;2022-07-22T09:53:53;4.53;;;4.15;;
14992;SDS011;7592;51.088;13.732;2022-07-22T09:58:52;4.50;;;4.20;;
14992;SDS011;7592;51.088;13.732;2022-07-22T10:03:54;4.60;;;4.22;;
14992;SDS011;7592;51.088;13.732;2022-07-22T10:08:50;4.05;;;3.85;;
14992;SDS011;7592;51.088;13.732;2022-07-22T10:13:43;4.15;;;3.90;;
14992;SDS011;7592;51.088;13.732;2022-07-22T10:18:37;4.53;;;4.32;;
14992;SDS011;7592;51.088;13.732;2022-07-22T10:23:32;6.40;;;4.65;;
14992;SDS011;7592;51.088;13.732;2022-07-22T10:28:34;4.05;;;3.75;;
14992;SDS011;7592;51.088;13.732;2022-07-22T10:33:30;11.60;;;5.40;;
14992;SDS011;7592;51.088;13.732;2022-07-22T10:38:26;17.38;;;5.60;;
14992;SDS011;7592;51.088;13.732;2022-07-22T10:43:26;4.15;;;3.70;;
14992;SDS011;7592;51.088;13.732;2022-07-22T10:58:50;4.85;;;4.45;;
14992;SDS011;7592;51.088;13.732;2022-07-22T11:03:48;4.18;;;3.88;;
14992;SDS011;7592;51.088;13.732;2022-07-22T11:08:43;4.95;;;4.45;;
14992;SDS011;7592;51.088;13.732;2022-07-22T11:13:39;4.38;;;4.07;;
14992;SDS011;7592;51.088;13.732;2022-07-22T11:18:44;5.00;;;4.60;;
14992;SDS011;7592;51.088;13.732;2022-07-22T11:23:44;4.43;;;4.13;;
14992;SDS011;7592;51.088;13.732;2022-07-22T11:28:40;4.38;;;4.15;;
14992;SDS011;7592;51.088;13.732;2022-07-22T11:33:35;4.05;;;3.75;;
14992;SDS011;7592;51.088;13.732;2022-07-22T11:38:47;4.43;;;4.03;;
14992;SDS011;7592;51.088;13.732;2022-07-22T11:43:48;4.47;;;4.28;;
14992;SDS011;7592;51.088;13.732;2022-07-22T11:48:42;4.95;;;4.20;;
14992;SDS011;7592;51.088;13.732;2022-07-22T11:53:36;4.35;;;4.05;;
14992;SDS011;7592;51.088;13.732;2022-07-22T11:58:43;3.85;;;3.55;;
14992;SDS011;7592;51.088;13.732;2022-07-22T12:03:49;4.20;;;3.95;;
14992;SDS011;7592;51.088;13.732;2022-07-22T12:08:51;4.50;;;3.95;;
14992;SDS011;7592;51.088;13.732;2022-07-22T12:14:05;3.35;;;3.05;;
14992;SDS011;7592;51.088;13.732;2022-07-22T12:19:08;3.47;;;3.30;;
14992;SDS011;7592;51.088;13.732;2022-07-22T12:24:10;5.38;;;4.70;;
14992;SDS011;7592;51.088;13.732;2022-07-22T12:29:19;5.22;;;3.20;;
14992;SDS011;7592;51.088;13.732;2022-07-22T12:39:32;3.40;;;3.20;;
14992;SDS011;7592;51.088;13.732;2022-07-22T12:44:26;3.50;;;3.30;;
14992;SDS011;7592;51.088;13.732;2022-07-22T12:49:26;3.30;;;3.00;;
14992;SDS011;7592;51.088;13.732;2022-07-22T12:54:19;3.65;;;2.88;;
14992;SDS011;7592;51.088;13.732;2022-07-22T12:59:13;3.58;;;2.92;;
14992;SDS011;7592;51.088;13.732;2022-07-22T13:04:06;2.97;;;2.73;;
14992;SDS011;7592;51.088;13.732;2022-07-22T13:08:59;4.03;;;2.97;;
14992;SDS011;7592;51.088;13.732;2022-07-22T13:13:53;3.00;;;2.80;;
14992;SDS011;7592;51.088;13.732;2022-07-22T13:18:47;2.77;;;2.57;;
14992;SDS011;7592;51.088;13.732;2022-07-22T13:23:42;2.57;;;2.47;;
14992;SDS011;7592;51.088;13.732;2022-07-22T13:28:35;3.10;;;2.90;;
14992;SDS011;7592;51.088;13.732;2022-07-22T13:33:28;2.87;;;2.57;;
14992;SDS011;7592;51.088;13.732;2022-07-22T13:38:21;3.37;;;3.17;;
14992;SDS011;7592;51.088;13.732;2022-07-22T13:43:14;2.97;;;2.77;;
14992;SDS011;7592;51.088;13.732;2022-07-22T15:51:24;3.57;;;2.70;;
14992;SDS011;7592;51.088;13.732;2022-07-22T15:56:18;3.03;;;2.93;;
14992;SDS011;7592;51.088;13.732;2022-07-22T16:01:11;4.27;;;2.80;;
14992;SDS011;7592;51.088;13.732;2022-07-22T16:06:08;3.83;;;3.17;;
14992;SDS011;7592;51.088;13.732;2022-07-22T16:11:02;4.10;;;3.00;;
14992;SDS011;7592;51.088;13.732;2022-07-22T16:16:01;2.63;;;2.53;;
14992;SDS011;7592;51.088;13.732;2022-07-22T16:20:55;2.67;;;2.57;;
14992;SDS011;7592;51.088;13.732;2022-07-22T16:25:49;4.17;;;3.03;;
14992;SDS011;7592;51.088;13.732;2022-07-22T16:30:45;2.80;;;2.57;;
14992;SDS011;7592;51.088;13.732;2022-07-22T16:35:38;4.30;;;3.30;;
14992;SDS011;7592;51.088;13.732;2022-07-22T16:40:37;2.90;;;2.70;;
14992;SDS011;7592;51.088;13.732;2022-07-22T16:45:35;3.17;;;2.83;;
14992;SDS011;7592;51.088;13.732;2022-07-22T16:50:31;3.20;;;3.00;;
14992;SDS011;7592;51.088;13.732;2022-07-22T16:55:26;4.03;;;2.50;;
14992;SDS011;7592;51.088;13.732;2022-07-22T17:00:19;4.50;;;2.50;;
14992;SDS011;7592;51.088;13.732;2022-07-22T17:05:12;4.33;;;3.00;;
14992;SDS011;7592;51.088;13.732;2022-07-22T17:10:08;5.17;;;2.50;;
14992;SDS011;7592;51.088;13.732;2022-07-22T17:15:02;3.67;;;2.93;;
14992;SDS011;7592;51.088;13.732;2022-07-22T17:19:55;2.77;;;2.57;;
14992;SDS011;7592;51.088;13.732;2022-07-22T17:24:48;3.07;;;2.70;;
14992;SDS011;7592;51.088;13.732;2022-07-22T17:29:41;4.03;;;2.23;;
14992;SDS011;7592;51.088;13.732;2022-07-22T17:34:38;2.87;;;2.67;;
14992;SDS011;7592;51.088;13.732;2022-07-22T17:39:31;4.70;;;2.60;;
14992;SDS011;7592;51.088;13.732;2022-07-22T17:44:25;3.70;;;2.70;;
14992;SDS011;7592;51.088;13.732;2022-07-22T17:49:18;3.67;;;3.37;;
14992;SDS011;7592;51.088;13.732;2022-07-22T17:54:11;4.97;;;2.73;;
14992;SDS011;7592;51.088;13.732;2022-07-22T17:59:05;2.70;;;2.50;;
14992;SDS011;7592;51.088;13.732;2022-07-22T18:03:58;4.50;;;3.00;;
14992;SDS011;7592;51.088;13.732;2022-07-22T18:08:52;3.60;;;3.40;;
14992;SDS011;7592;51.088;13.732;2022-07-22T18:13:46;3.13;;;2.90;;
14992;SDS011;7592;51.088;13.732;2022-07-22T18:18:39;3.10;;;2.63;;
14992;SDS011;7592;51.088;13.732;2022-07-22T18:23:32;7.37;;;5.27;;
14992;SDS011;7592;51.088;13.732;2022-07-22T18:28:26;5.70;;;5.23;;
14992;SDS011;7592;51.088;13.732;2022-07-22T18:33:19;4.10;;;3.30;;
14992;SDS011;7592;51.088;13.732;2022-07-22T18:38:23;2.27;;;2.17;;
14992;SDS011;7592;51.088;13.732;2022-07-22T18:43:17;5.00;;;2.43;;
14992;SDS011;7592;51.088;13.732;2022-07-22T18:48:10;4.30;;;2.17;;
14992;SDS011;7592;51.088;13.732;2022-07-22T18:53:07;2.23;;;2.03;;
14992;SDS011;7592;51.088;13.732;2022-07-22T18:58:02;5.23;;;2.07;;
14992;SDS011;7592;51.088;13.732;2022-07-22T19:03:01;3.50;;;2.10;;
14992;SDS011;7592;51.088;13.732;2022-07-22T19:07:58;2.20;;;2.10;;
14992;SDS011;7592;51.088;13.732;2022-07-22T19:12:52;2.30;;;2.17;;
14992;SDS011;7592;51.088;13.732;2022-07-22T19:17:46;2.13;;;1.83;;
14992;SDS011;7592;51.088;13.732;2022-07-22T19:22:39;1.80;;;1.70;;
14992;SDS011;7592;51.088;13.732;2022-07-22T19:27:32;1.80;;;1.70;;
14992;SDS011;7592;51.088;13.732;2022-07-22T19:32:26;2.70;;;2.13;;
14992;SDS011;7592;51.088;13.732;2022-07-22T19:37:19;5.87;;;2.50;;
14992;SDS011;7592;51.088;13.732;2022-07-22T19:42:18;4.70;;;2.80;;
14992;SDS011;7592;51.088;13.732;2022-07-22T19:47:12;4.17;;;1.70;;
14992;SDS011;7592;51.088;13.732;2022-07-22T19:52:13;4.50;;;1.90;;
14992;SDS011;7592;51.088;13.732;2022-07-22T19:57:07;3.00;;;2.80;;
14992;SDS011;7592;51.088;13.732;2022-07-22T20:02:04;1.90;;;1.80;;
14992;SDS011;7592;51.088;13.732;2022-07-22T20:06:58;3.40;;;2.10;;
14992;SDS011;7592;51.088;13.732;2022-07-22T20:11:53;3.73;;;2.17;;
14992;SDS011;7592;51.088;13.732;2022-07-22T20:16:47;3.53;;;2.17;;
14992;SDS011;7592;51.088;13.732;2022-07-22T20:21:42;7.13;;;1.87;;
14992;SDS011;7592;51.088;13.732;2022-07-22T20:26:38;3.07;;;2.73;;
14992;SDS011;7592;51.088;13.732;2022-07-22T20:31:34;2.70;;;2.40;;
14992;SDS011;7592;51.088;13.732;2022-07-22T20:36:30;8.30;;;4.10;;
14992;SDS011;7592;51.088;13.732;2022-07-22T20:41:26;4.70;;;4.30;;
14992;SDS011;7592;51.088;13.732;2022-07-22T20:46:21;2.93;;;2.83;;
14992;SDS011;7592;51.088;13.732;2022-07-22T20:51:18;2.87;;;2.73;;
14992;SDS011;7592;51.088;13.732;2022-07-22T20:56:14;2.50;;;2.30;;
14992;SDS011;7592;51.088;13.732;2022-07-22T21:01:10;2.33;;;2.23;;
14992;SDS011;7592;51.088;13.732;2022-07-22T21:06:03;5.10;;;2.80;;
14992;SDS011;7592;51.088;13.732;2022-07-22T21:10:58;3.77;;;2.20;;
14992;SDS011;7592;51.088;13.732;2022-07-22T21:15:52;2.80;;;2.70;;
14992;SDS011;7592;51.088;13.732;2022-07-22T21:20:47;2.40;;;2.30;;
14992;SDS011;7592;51.088;13.732;2022-07-22T21:25:40;3.30;;;3.10;;
14992;SDS011;7592;51.088;13.732;2022-07-22T21:30:33;5.30;;;3.33;;
14992;SDS011;7592;51.088;13.732;2022-07-22T21:35:28;3.33;;;2.63;;
14992;SDS011;7592;51.088;13.732;2022-07-22T21:40:21;2.77;;;2.57;;
14992;SDS011;7592;51.088;13.732;2022-07-22T21:45:16;2.60;;;2.10;;
14992;SDS011;7592;51.088;13.732;2022-07-22T21:50:09;2.37;;;2.07;;
14992;SDS011;7592;51.088;13.732;2022-07-22T21:55:05;2.23;;;2.00;;
14992;SDS011;7592;51.088;13.732;2022-07-22T22:00:00;2.60;;;1.90;;
14992;SDS011;7592;51.088;13.732;2022-07-22T22:04:59;3.50;;;1.97;;
14992;SDS011;7592;51.088;13.732;2022-07-22T22:09:52;2.23;;;2.03;;
14992;SDS011;7592;51.088;13.732;2022-07-22T22:14:45;2.13;;;1.83;;
14992;SDS011;7592;51.088;13.732;2022-07-22T22:19:38;3.60;;;1.87;;
14992;SDS011;7592;51.088;13.732;2022-07-22T22:24:31;2.63;;;2.50;;
14992;SDS011;7592;51.088;13.732;2022-07-22T22:29:24;2.80;;;2.60;;
14992;SDS011;7592;51.088;13.732;2022-07-22T22:34:17;3.37;;;2.37;;
14992;SDS011;7592;51.088;13.732;2022-07-22T22:39:10;3.97;;;2.27;;
14992;SDS011;7592;51.088;13.732;2022-07-22T22:44:03;2.50;;;2.30;;
14992;SDS011;7592;51.088;13.732;2022-07-22T22:48:56;3.73;;;2.70;;
14992;SDS011;7592;51.088;13.732;2022-07-22T22:53:50;3.13;;;2.33;;
14992;SDS011;7592;51.088;13.732;2022-07-22T22:58:43;2.63;;;2.30;;
14992;SDS011;7592;51.088;13.732;2022-07-22T23:03:36;2.33;;;2.13;;
14992;SDS011;7592;51.088;13.732;2022-07-22T23:08:29;2.50;;;2.40;;
14992;SDS011;7592;51.088;13.732;2022-07-22T23:13:22;2.90;;;2.70;;
14992;SDS011;7592;51.088;13.732;2022-07-22T23:18:18;3.10;;;2.40;;
14992;SDS011;7592;51.088;13.732;2022-07-22T23:23:12;2.40;;;2.20;;
14992;SDS011;7592;51.088;13.732;2022-07-22T23:28:05;2.80;;;2.40;;
14992;SDS011;7592;51.088;13.732;2022-07-22T23:32:58;3.43;;;2.53;;
14992;SDS011;7592;51.088;13.732;2022-07-22T23:37:51;2.10;;;2.00;;
14992;SDS011;7592;51.088;13.732;2022-07-22T23:42:44;2.30;;;2.20;;
14992;SDS011;7592;51.088;13.732;2022-07-22T23:53:23;2.43;;;2.33;;
14992;SDS011;7592;51.088;13.732;2022-07-22T23:58:28;2.93;;;2.73;;
